Time;durP1;ratioP1;P1;durP2;ratioP2;P2;SDS_P1;SDS_P2;PMS_P1;PMS_P2;Temp;Humidity;BMP_temperature;BMP_pressure;BME280_temperature;BME280_humidity;BME280_pressure;Samples;Min_cycle;Max_cycle;Signal;HPM_P1;HPM_P2
2022/01/03 00:00:29;;;;;;;8.20;4.95;;;8.30;99.90;;;;;;5014090;28;20070;-87
2022/01/03 00:02:58;;;;;;;8.20;4.75;;;8.80;99.90;;;;;;5014103;28;20390;-89
2022/01/03 00:05:26;;;;;;;10.15;4.80;;;9.00;99.90;;;;;;4997584;28;20033;-89
2022/01/03 00:07:57;;;;;;;7.47;4.78;;;9.20;99.90;;;;;;5016626;28;20090;-87
2022/01/03 00:10:23;;;;;;;9.43;4.97;;;9.20;99.90;;;;;;5013624;28;20462;-88
2022/01/03 00:12:49;;;;;;;7.55;3.70;;;9.40;99.90;;;;;;4999715;28;20049;-87
2022/01/03 00:15:20;;;;;;;9.93;4.15;;;9.40;99.90;;;;;;5018384;28;20021;-87
2022/01/03 00:17:48;;;;;;;7.38;3.50;;;9.50;99.90;;;;;;5035734;28;20061;-87
2022/01/03 00:20:14;;;;;;;7.97;4.05;;;9.70;99.90;;;;;;5000139;28;20030;-89
2022/01/03 00:22:47;;;;;;;8.82;4.03;;;9.80;99.90;;;;;;5001420;28;20014;-88
2022/01/03 00:25:16;;;;;;;8.18;4.07;;;9.90;99.90;;;;;;5035179;28;20068;-88
2022/01/03 00:27:41;;;;;;;9.50;4.07;;;9.90;99.90;;;;;;5016538;28;20018;-90
2022/01/03 00:30:08;;;;;;;7.03;3.22;;;10.00;99.90;;;;;;4998195;28;20069;-88
2022/01/03 00:32:38;;;;;;;6.88;3.03;;;10.00;99.90;;;;;;5015950;28;20073;-89
2022/01/03 00:35:04;;;;;;;6.47;3.53;;;10.00;99.90;;;;;;5003538;28;20109;-89
2022/01/03 00:37:34;;;;;;;6.10;2.83;;;10.10;99.90;;;;;;5002728;28;20033;-88
2022/01/03 00:40:02;;;;;;;7.28;3.30;;;10.10;99.90;;;;;;5000607;28;20025;-87
2022/01/03 00:42:27;;;;;;;9.10;3.40;;;10.00;99.90;;;;;;5017525;28;20029;-89
2022/01/03 00:44:53;;;;;;;16.73;5.45;;;9.90;99.90;;;;;;5016526;28;20032;-88
2022/01/03 00:47:19;;;;;;;8.52;4.43;;;9.80;99.90;;;;;;5029438;28;20026;-87
2022/01/03 00:49:46;;;;;;;8.18;4.57;;;9.70;99.90;;;;;;4995577;28;20048;-88
2022/01/03 00:52:14;;;;;;;8.32;4.05;;;9.50;99.90;;;;;;5011472;28;20021;-89
2022/01/03 00:54:40;;;;;;;9.75;3.83;;;9.40;99.90;;;;;;5011503;28;20061;-87
2022/01/03 00:57:22;;;;;;;7.00;2.80;;;9.30;99.90;;;;;;4995403;28;20018;-88
2022/01/03 00:59:59;;;;;;;9.23;4.10;;;9.50;99.90;;;;;;4994974;28;20033;-89
2022/01/03 01:02:27;;;;;;;10.45;4.20;;;9.50;99.90;;;;;;5011269;28;20033;-90
2022/01/03 01:04:58;;;;;;;9.52;4.80;;;9.50;99.90;;;;;;4997041;28;20048;-89
2022/01/03 01:07:30;;;;;;;8.27;3.65;;;9.50;99.90;;;;;;5012265;28;20037;-87
2022/01/03 01:10:03;;;;;;;6.80;3.25;;;9.40;99.90;;;;;;5013647;28;20593;-88
2022/01/03 01:12:31;;;;;;;7.88;4.03;;;9.40;99.90;;;;;;5015006;28;20017;-89
2022/01/03 01:14:57;;;;;;;17.23;5.03;;;9.50;99.90;;;;;;5002461;28;20041;-87
2022/01/03 01:17:27;;;;;;;7.68;3.47;;;9.50;99.90;;;;;;5010324;28;20034;-88
2022/01/03 01:20:02;;;;;;;7.60;3.70;;;9.50;99.90;;;;;;4999406;28;20037;-90
2022/01/03 01:22:31;;;;;;;11.73;4.15;;;9.60;99.90;;;;;;5013324;28;20085;-87
2022/01/03 01:27:49;;;;;;;8.32;4.25;;;9.50;99.90;;;;;;4986103;28;20061;-86
2022/01/03 01:30:23;;;;;;;10.15;3.95;;;9.50;99.90;;;;;;5017182;28;20034;-88
2022/01/03 01:33:04;;;;;;;9.50;5.00;;;9.40;99.90;;;;;;5006255;28;20026;-88
2022/01/03 01:35:37;;;;;;;10.40;5.18;;;9.30;99.90;;;;;;5015782;28;20097;-87
2022/01/03 01:38:08;;;;;;;9.65;5.45;;;9.30;99.90;;;;;;5033837;28;20052;-87
2022/01/03 01:40:44;;;;;;;11.40;5.53;;;9.20;99.90;;;;;;5014530;28;20037;-87
2022/01/03 01:43:13;;;;;;;12.00;5.75;;;9.10;99.90;;;;;;5014489;28;20026;-86
2022/01/03 01:45:42;;;;;;;10.88;6.13;;;9.00;99.90;;;;;;5002342;28;20085;-88
2022/01/03 01:48:12;;;;;;;17.02;7.82;;;8.90;99.90;;;;;;5006325;28;20040;-88
2022/01/03 01:50:41;;;;;;;15.20;7.13;;;8.80;99.90;;;;;;5021947;28;20045;-88
2022/01/03 01:53:10;;;;;;;15.27;7.50;;;8.70;99.90;;;;;;5039221;28;20018;-88
2022/01/03 01:55:48;;;;;;;12.63;5.70;;;8.60;99.90;;;;;;5006048;28;20101;-88
2022/01/03 01:58:29;;;;;;;13.52;6.35;;;8.60;99.90;;;;;;5021761;28;20022;-88
2022/01/03 02:01:05;;;;;;;12.13;7.38;;;8.60;99.90;;;;;;5012584;28;20034;-86
2022/01/03 02:04:07;;;;;;;10.00;5.65;;;8.60;99.90;;;;;;5008039;28;20030;-88
2022/01/03 02:07:20;;;;;;;11.30;6.13;;;8.60;99.90;;;;;;4987210;28;20048;-87
2022/01/03 02:10:13;;;;;;;17.33;6.60;;;8.70;99.90;;;;;;4969017;28;20045;-87
2022/01/03 02:12:46;;;;;;;11.18;5.07;;;8.70;99.90;;;;;;5020636;28;20046;-87
2022/01/03 02:15:15;;;;;;;9.20;4.65;;;8.90;99.90;;;;;;5036283;28;20025;-88
2022/01/03 02:17:48;;;;;;;9.43;5.13;;;9.00;99.90;;;;;;5002270;28;20033;-88
2022/01/03 02:20:23;;;;;;;10.65;5.55;;;9.00;99.90;;;;;;5000303;28;20038;-87
2022/01/03 02:22:54;;;;;;;9.73;4.18;;;9.10;99.90;;;;;;5004828;28;20045;-89
2022/01/03 02:25:26;;;;;;;14.65;4.18;;;9.20;99.90;;;;;;4998108;28;20037;-87
2022/01/03 02:27:53;;;;;;;9.27;4.05;;;9.40;99.90;;;;;;5009695;28;20057;-88
2022/01/03 02:30:27;;;;;;;5.88;3.40;;;9.40;99.90;;;;;;5000938;28;20025;-87
2022/01/03 02:32:53;;;;;;;5.28;2.53;;;9.60;99.90;;;;;;4996180;28;20042;-88
2022/01/03 02:35:21;;;;;;;6.38;2.72;;;9.70;99.90;;;;;;5009597;28;20053;-86
2022/01/03 02:37:48;;;;;;;9.60;3.13;;;10.10;99.90;;;;;;5010453;28;20022;-87
2022/01/03 02:40:17;;;;;;;6.88;2.47;;;10.30;99.90;;;;;;5029069;28;20038;-88
2022/01/03 02:42:44;;;;;;;6.10;2.40;;;10.60;99.90;;;;;;5034856;28;20042;-88
2022/01/03 02:45:18;;;;;;;10.93;2.53;;;10.80;99.90;;;;;;5019203;28;20108;-88
2022/01/03 02:47:46;;;;;;;5.63;2.17;;;11.10;99.90;;;;;;5037001;28;20025;-88
2022/01/03 02:50:13;;;;;;;4.32;2.30;;;11.30;99.90;;;;;;5023899;23;20053;-85
2022/01/03 02:52:39;;;;;;;3.83;2.40;;;11.30;99.90;;;;;;5026923;28;20038;-86
2022/01/03 02:55:07;;;;;;;11.75;2.92;;;11.40;99.90;;;;;;5032380;28;20124;-85
2022/01/03 02:57:38;;;;;;;10.48;2.60;;;11.60;99.90;;;;;;5035078;28;20117;-85
2022/01/03 03:00:11;;;;;;;6.03;2.38;;;11.80;99.90;;;;;;5034680;28;20100;-86
2022/01/03 03:02:37;;;;;;;8.05;2.50;;;11.80;99.90;;;;;;5021763;28;20029;-85
2022/01/03 03:05:06;;;;;;;5.90;2.20;;;11.80;99.90;;;;;;5039839;28;20029;-87
2022/01/03 03:07:32;;;;;;;4.18;2.60;;;11.80;99.90;;;;;;5038799;28;20030;-84
2022/01/03 03:09:59;;;;;;;5.75;2.70;;;11.80;99.90;;;;;;5038518;28;20025;-84
2022/01/03 03:12:27;;;;;;;5.53;2.53;;;11.90;99.90;;;;;;5038091;28;20021;-84
2022/01/03 03:14:54;;;;;;;7.07;3.33;;;11.80;99.90;;;;;;5036784;28;20017;-87
2022/01/03 03:17:20;;;;;;;4.53;2.45;;;11.90;99.90;;;;;;5034763;28;20064;-84
2022/01/03 03:20:00;;;;;;;9.70;2.72;;;11.90;99.90;;;;;;5039976;28;20017;-84
2022/01/03 03:22:28;;;;;;;12.18;2.90;;;11.90;99.90;;;;;;5059488;28;20034;-86
2022/01/03 03:25:12;;;;;;;5.47;2.60;;;11.90;99.90;;;;;;5039377;28;20025;-86
2022/01/03 03:27:44;;;;;;;5.28;2.20;;;12.00;99.90;;;;;;5039625;28;20030;-86
2022/01/03 03:30:25;;;;;;;8.68;2.10;;;12.10;99.90;;;;;;5041607;28;20044;-85
2022/01/03 03:33:15;;;;;;;6.70;2.10;;;12.10;99.90;;;;;;5038271;28;20037;-84
2022/01/03 03:35:45;;;;;;;6.95;3.28;;;12.10;99.90;;;;;;5038396;28;20176;-85
2022/01/03 03:38:12;;;;;;;4.95;2.40;;;12.20;99.90;;;;;;5037736;28;20025;-85
2022/01/03 03:40:38;;;;;;;4.45;2.58;;;12.20;99.90;;;;;;5034442;28;20060;-86
2022/01/03 03:43:05;;;;;;;4.75;2.13;;;12.20;99.90;;;;;;5029024;28;20021;-86
2022/01/03 03:45:32;;;;;;;9.20;2.28;;;12.20;99.90;;;;;;5028982;28;20055;-85
2022/01/03 03:47:59;;;;;;;3.78;2.22;;;12.20;99.90;;;;;;5017960;28;20075;-85
2022/01/03 03:50:25;;;;;;;5.10;2.10;;;12.20;99.90;;;;;;5039220;28;20037;-85
2022/01/03 03:52:53;;;;;;;3.72;2.25;;;12.20;99.90;;;;;;5036452;28;20021;-85
2022/01/03 03:55:19;;;;;;;4.65;2.13;;;12.20;99.90;;;;;;5029065;28;20036;-85
2022/01/03 03:57:44;;;;;;;6.90;2.33;;;12.20;99.90;;;;;;5028601;28;20052;-85
2022/01/03 04:00:15;;;;;;;4.63;2.00;;;12.20;99.90;;;;;;5031967;28;20093;-85
2022/01/03 04:02:44;;;;;;;5.05;2.22;;;12.20;99.90;;;;;;5037316;28;20102;-85
2022/01/03 04:05:13;;;;;;;3.67;2.17;;;12.20;99.90;;;;;;5040447;28;20028;-84
2022/01/03 04:07:41;;;;;;;6.38;2.40;;;12.10;99.90;;;;;;5059039;28;20021;-85
2022/01/03 04:10:09;;;;;;;5.03;2.55;;;12.00;99.90;;;;;;5025794;28;20029;-86
2022/01/03 04:12:36;;;;;;;6.60;2.80;;;12.00;99.90;;;;;;5040266;28;20006;-85
2022/01/03 04:15:05;;;;;;;8.30;2.60;;;12.00;99.90;;;;;;5042632;28;20094;-86
2022/01/03 04:17:32;;;;;;;5.97;2.50;;;12.00;99.90;;;;;;5042335;28;20028;-85
2022/01/03 04:19:58;;;;;;;6.00;2.78;;;12.00;99.90;;;;;;5041413;28;20040;-86
2022/01/03 04:22:24;;;;;;;5.97;2.22;;;12.00;99.90;;;;;;5025032;28;20033;-85
2022/01/03 04:24:50;;;;;;;6.13;2.53;;;12.00;99.90;;;;;;5057568;28;20033;-84
2022/01/03 04:27:17;;;;;;;4.05;2.22;;;12.00;99.90;;;;;;5040780;28;20063;-85
2022/01/03 04:29:42;;;;;;;3.85;2.08;;;12.00;99.90;;;;;;5022052;28;20037;-83
2022/01/03 04:32:08;;;;;;;6.60;2.55;;;11.90;99.90;;;;;;5035989;28;20060;-85
2022/01/03 04:34:35;;;;;;;6.47;2.65;;;11.90;99.90;;;;;;5029297;28;20018;-85
2022/01/03 04:37:01;;;;;;;5.25;2.58;;;11.90;99.90;;;;;;5032194;28;20129;-83
2022/01/03 04:39:26;;;;;;;4.25;2.35;;;11.90;99.90;;;;;;5050612;28;20051;-85
2022/01/03 04:41:52;;;;;;;5.65;2.40;;;11.90;99.90;;;;;;5032599;28;20037;-85
2022/01/03 04:44:18;;;;;;;4.90;2.00;;;11.90;99.90;;;;;;5032123;28;20025;-84
2022/01/03 04:46:44;;;;;;;8.32;2.60;;;11.90;99.90;;;;;;5051471;28;20451;-84
2022/01/03 04:49:11;;;;;;;7.95;2.03;;;11.90;99.90;;;;;;5033559;28;20029;-85
2022/01/03 04:51:39;;;;;;;5.18;1.88;;;11.90;99.90;;;;;;5030504;28;20029;-84
2022/01/03 04:54:06;;;;;;;4.07;2.47;;;11.90;99.90;;;;;;5036614;28;20021;-85
2022/01/03 04:56:33;;;;;;;5.90;2.08;;;12.00;99.90;;;;;;5040375;28;20037;-86
2022/01/03 04:59:01;;;;;;;3.05;1.92;;;12.00;99.90;;;;;;5040831;28;20032;-85
2022/01/03 05:01:28;;;;;;;6.93;2.20;;;12.00;99.90;;;;;;5041207;28;20021;-86
2022/01/03 05:03:55;;;;;;;6.47;1.88;;;12.10;99.90;;;;;;5042682;28;20032;-85
2022/01/03 05:06:21;;;;;;;3.55;1.70;;;12.10;99.90;;;;;;5042758;28;20022;-86
2022/01/03 05:08:48;;;;;;;7.05;2.10;;;12.20;99.90;;;;;;5042490;28;20033;-84
2022/01/03 05:11:15;;;;;;;6.32;1.83;;;12.30;99.90;;;;;;5042535;28;20044;-87
2022/01/03 05:13:41;;;;;;;5.00;2.22;;;12.40;99.90;;;;;;5059686;28;20009;-86
2022/01/03 05:16:08;;;;;;;6.97;1.58;;;12.40;99.90;;;;;;5042337;28;20029;-86
2022/01/03 05:18:35;;;;;;;9.75;2.03;;;12.50;99.90;;;;;;5042202;28;20014;-84
2022/01/03 05:21:01;;;;;;;3.35;1.92;;;12.40;99.90;;;;;;5042629;28;20013;-81
2022/01/03 05:23:28;;;;;;;6.82;1.80;;;12.50;99.90;;;;;;5026080;28;20009;-87
2022/01/03 05:25:54;;;;;;;4.03;1.50;;;12.40;99.90;;;;;;5042307;28;20045;-88
2022/01/03 05:28:20;;;;;;;10.60;2.47;;;12.50;99.90;;;;;;5041822;28;20067;-85
2022/01/03 05:30:46;;;;;;;3.58;1.80;;;12.40;99.90;;;;;;5041623;28;20048;-85
2022/01/03 05:33:12;;;;;;;5.28;1.70;;;12.50;99.90;;;;;;5059093;28;20026;-85
2022/01/03 05:35:39;;;;;;;8.02;1.80;;;12.50;99.90;;;;;;5042137;28;20022;-86
2022/01/03 05:38:06;;;;;;;8.07;1.80;;;12.50;99.90;;;;;;5041768;28;20037;-85
2022/01/03 05:40:31;;;;;;;3.83;1.63;;;12.60;99.90;;;;;;5058862;28;20030;-86
2022/01/03 05:42:57;;;;;;;6.30;1.63;;;12.50;99.90;;;;;;5041624;28;20024;-86
2022/01/03 05:45:23;;;;;;;3.42;1.50;;;12.50;99.90;;;;;;5041553;28;20025;-86
2022/01/03 05:47:50;;;;;;;4.95;1.67;;;12.50;99.90;;;;;;5041818;28;20002;-86
2022/01/03 05:50:18;;;;;;;3.20;1.70;;;12.40;99.90;;;;;;5041519;28;20042;-85
2022/01/03 05:52:45;;;;;;;6.72;1.77;;;12.40;99.90;;;;;;5057460;28;20021;-87
2022/01/03 05:55:12;;;;;;;8.25;1.60;;;12.50;99.90;;;;;;5042077;28;20029;-84
2022/01/03 05:57:39;;;;;;;2.58;1.50;;;12.50;99.90;;;;;;5041327;28;20021;-83
2022/01/03 06:00:10;;;;;;;2.72;1.33;;;12.50;99.90;;;;;;5039918;28;20017;-86
2022/01/03 06:02:43;;;;;;;4.47;1.60;;;12.50;99.90;;;;;;5042837;28;20070;-86
2022/01/03 06:07:58;;;;;;;3.67;1.25;;;12.60;99.90;;;;;;5058409;28;20049;-84
2022/01/03 06:10:25;;;;;;;6.10;1.80;;;12.60;99.90;;;;;;5041244;28;20025;-85
2022/01/03 06:12:52;;;;;;;3.10;1.63;;;12.70;99.90;;;;;;5041540;28;20013;-85
2022/01/03 06:15:21;;;;;;;2.58;1.40;;;12.60;99.90;;;;;;5041392;28;20096;-85
2022/01/03 06:17:49;;;;;;;6.40;1.58;;;12.50;99.90;;;;;;5036816;28;20034;-84
2022/01/03 06:20:16;;;;;;;4.63;1.80;;;12.50;99.90;;;;;;5036268;28;20024;-84
2022/01/03 06:22:42;;;;;;;2.75;1.33;;;12.50;99.90;;;;;;5058091;28;20030;-87
2022/01/03 06:25:10;;;;;;;3.97;1.75;;;12.60;99.90;;;;;;5041159;28;20041;-87
2022/01/03 06:27:39;;;;;;;3.60;1.45;;;12.50;99.90;;;;;;5040434;28;20072;-87
2022/01/03 06:30:07;;;;;;;3.30;1.83;;;12.50;99.90;;;;;;5024362;28;20021;-87
2022/01/03 06:32:36;;;;;;;5.63;1.52;;;12.40;99.90;;;;;;5025068;28;20013;-86
2022/01/03 06:35:03;;;;;;;7.28;1.80;;;12.40;99.90;;;;;;5041451;28;20045;-87
2022/01/03 06:37:30;;;;;;;8.43;2.03;;;12.40;99.90;;;;;;5041630;28;20048;-87
2022/01/03 06:40:18;;;;;;;3.95;1.60;;;12.30;99.90;;;;;;5041838;28;20044;-85
2022/01/03 06:42:45;;;;;;;3.92;1.80;;;12.30;99.90;;;;;;5041538;28;20037;-87
2022/01/03 06:45:12;;;;;;;5.72;1.90;;;12.30;99.90;;;;;;5041354;28;20191;-88
2022/01/03 06:47:38;;;;;;;3.33;1.50;;;12.30;99.90;;;;;;5058136;28;20113;-86
2022/01/03 06:50:05;;;;;;;4.43;1.58;;;12.30;99.90;;;;;;5057544;28;20044;-87
2022/01/03 06:52:30;;;;;;;9.57;2.00;;;12.30;99.90;;;;;;5040132;28;20033;-86
2022/01/03 06:54:56;;;;;;;5.07;1.77;;;12.30;99.90;;;;;;5040846;28;20024;-86
2022/01/03 06:57:24;;;;;;;6.32;1.90;;;12.20;99.90;;;;;;5039988;28;20072;-87
2022/01/03 06:59:50;;;;;;;5.68;1.33;;;12.20;99.90;;;;;;5040583;28;20013;-86
2022/01/03 07:02:16;;;;;;;7.68;1.65;;;12.20;99.90;;;;;;5040522;28;20018;-87
2022/01/03 07:04:42;;;;;;;5.05;1.73;;;12.20;99.90;;;;;;5040850;28;20016;-86
2022/01/03 07:07:08;;;;;;;6.30;1.77;;;12.20;99.90;;;;;;5057967;28;20048;-87
2022/01/03 07:09:33;;;;;;;6.75;1.52;;;12.20;99.90;;;;;;5040894;28;20046;-86
2022/01/03 07:11:59;;;;;;;3.53;1.40;;;12.30;99.90;;;;;;5057702;28;20024;-85
2022/01/03 07:19:42;;;;;;;6.03;1.70;;;12.40;99.90;;;;;;5056806;28;20045;-85
2022/01/03 07:22:09;;;;;;;7.63;1.58;;;12.40;99.90;;;;;;5056435;28;20036;-87
2022/01/03 07:24:37;;;;;;;5.07;1.75;;;12.50;99.90;;;;;;5055337;28;20025;-85
2022/01/03 07:27:05;;;;;;;4.18;1.60;;;12.50;99.90;;;;;;5052709;28;20081;-86
2022/01/03 07:29:31;;;;;;;4.50;1.60;;;12.50;99.90;;;;;;5049460;28;20041;-86
2022/01/03 07:31:57;;;;;;;5.93;1.55;;;12.50;99.90;;;;;;5047328;28;20018;-85
2022/01/03 07:34:23;;;;;;;5.28;1.98;;;12.60;99.90;;;;;;5032993;28;20026;-84
2022/01/03 07:36:50;;;;;;;3.97;1.73;;;12.60;99.90;;;;;;5051702;28;20048;-85
2022/01/03 07:39:17;;;;;;;5.05;2.10;;;12.50;99.90;;;;;;5035044;28;20037;-87
2022/01/03 07:41:43;;;;;;;7.05;2.13;;;12.50;99.90;;;;;;5053296;28;20025;-86
2022/01/03 07:44:08;;;;;;;4.75;1.88;;;12.40;99.90;;;;;;5033150;28;20049;-86
2022/01/03 07:46:34;;;;;;;6.43;1.98;;;12.20;99.90;;;;;;5032245;28;20025;-85
2022/01/03 07:49:00;;;;;;;8.82;2.47;;;12.10;99.90;;;;;;5048579;28;20497;-87
2022/01/03 07:51:26;;;;;;;8.30;2.33;;;12.10;99.90;;;;;;5049073;28;20089;-86
2022/01/03 07:53:52;;;;;;;3.58;2.03;;;12.00;99.90;;;;;;5031845;28;20033;-86
2022/01/03 07:56:21;;;;;;;4.70;2.20;;;11.90;99.90;;;;;;5049224;28;20065;-86
2022/01/03 07:58:47;;;;;;;4.93;2.35;;;11.90;99.90;;;;;;5048834;28;20036;-86
2022/01/03 08:01:13;;;;;;;3.90;2.00;;;11.80;99.90;;;;;;5048086;28;20107;-85
2022/01/03 08:03:39;;;;;;;4.70;1.95;;;11.80;99.90;;;;;;5042732;28;20045;-86
2022/01/03 08:06:07;;;;;;;4.20;2.00;;;11.80;99.90;;;;;;5043687;28;20030;-85
2022/01/03 08:08:34;;;;;;;4.53;1.85;;;11.80;99.90;;;;;;5041093;28;20038;-85
2022/01/03 08:10:59;;;;;;;3.55;1.67;;;11.80;99.90;;;;;;5040548;28;20028;-84
2022/01/03 08:13:25;;;;;;;9.30;3.88;;;11.70;99.90;;;;;;5042222;28;20108;-85
2022/01/03 08:15:51;;;;;;;12.63;6.78;;;11.70;99.90;;;;;;5042472;28;20420;-85
2022/01/03 08:18:17;;;;;;;5.45;1.80;;;11.70;99.90;;;;;;5029577;28;20020;-85
2022/01/03 08:20:42;;;;;;;5.45;1.85;;;11.70;99.90;;;;;;5054706;28;20053;-84
2022/01/03 08:23:08;;;;;;;7.35;1.98;;;11.70;99.90;;;;;;5056414;28;20017;-87
2022/01/03 08:25:37;;;;;;;4.10;1.52;;;11.90;99.90;;;;;;5060777;28;20013;-87
2022/01/03 08:28:09;;;;;;;5.07;2.20;;;12.00;99.90;;;;;;5059738;28;20045;-86
2022/01/03 08:30:36;;;;;;;3.55;1.80;;;12.30;99.90;;;;;;5043346;28;20064;-87
2022/01/03 08:33:03;;;;;;;8.85;1.80;;;12.60;99.90;;;;;;5043366;28;20013;-86
2022/01/03 08:35:29;;;;;;;10.10;2.53;;;13.00;99.90;;;;;;5043616;28;20049;-87
2022/01/03 08:37:56;;;;;;;3.28;1.70;;;13.30;99.90;;;;;;5043167;28;20025;-88
2022/01/03 08:40:22;;;;;;;4.63;2.03;;;13.80;99.90;;;;;;5060206;28;20037;-86
2022/01/03 08:42:48;;;;;;;3.28;1.80;;;14.40;99.90;;;;;;5060263;28;20021;-87
2022/01/03 08:45:14;;;;;;;4.85;2.05;;;15.10;99.90;;;;;;5060199;28;20017;-87
2022/01/03 08:47:40;;;;;;;4.97;1.60;;;15.60;99.90;;;;;;5060028;28;20010;-86
2022/01/03 08:50:07;;;;;;;7.88;1.83;;;15.80;99.90;;;;;;5069438;22;20038;-87
2022/01/03 08:52:33;;;;;;;3.22;1.65;;;16.30;99.90;;;;;;5030802;28;20030;-87
2022/01/03 08:54:59;;;;;;;3.67;1.73;;;16.50;99.90;;;;;;5057090;28;20076;-87
2022/01/03 08:57:25;;;;;;;3.35;1.50;;;17.00;99.20;;;;;;5035521;28;20026;-86
2022/01/03 08:59:51;;;;;;;4.10;1.48;;;17.20;98.50;;;;;;5016120;28;20033;-88
2022/01/03 09:02:18;;;;;;;5.38;1.45;;;17.50;97.70;;;;;;5016681;28;20005;-85
2022/01/03 09:04:45;;;;;;;5.60;1.70;;;17.60;97.00;;;;;;5057883;28;20024;-85
2022/01/03 09:07:11;;;;;;;2.25;1.08;;;17.80;96.80;;;;;;5051863;28;20484;-86
2022/01/03 09:09:38;;;;;;;4.15;1.55;;;18.00;96.10;;;;;;5034057;28;20038;-87
2022/01/03 09:12:06;;;;;;;3.70;1.40;;;18.10;95.80;;;;;;5033957;28;20026;-86
2022/01/03 09:14:36;;;;;;;9.93;1.52;;;18.60;94.40;;;;;;5019764;28;20033;-86
2022/01/03 09:17:02;;;;;;;2.90;1.40;;;18.50;94.10;;;;;;5041047;28;20044;-85
2022/01/03 09:19:29;;;;;;;3.30;1.40;;;18.80;93.60;;;;;;5024742;28;20076;-87
2022/01/03 09:22:08;;;;;;;5.13;1.40;;;19.20;92.90;;;;;;5040975;28;20033;-86
2022/01/03 09:24:51;;;;;;;3.72;1.10;;;19.20;92.50;;;;;;5035272;28;20121;-87
2022/01/03 09:30:06;;;;;;;2.95;1.20;;;19.30;91.70;;;;;;5041119;28;20299;-84
2022/01/03 09:32:32;;;;;;;2.50;0.90;;;19.90;90.60;;;;;;5057343;28;20017;-87
2022/01/03 09:34:58;;;;;;;3.28;1.15;;;19.40;90.40;;;;;;5052088;28;20026;-87
2022/01/03 09:37:24;;;;;;;1.23;0.88;;;19.30;90.60;;;;;;5020628;28;20040;-84
2022/01/03 09:39:52;;;;;;;2.97;1.48;;;19.40;89.60;;;;;;5037771;28;20140;-84
2022/01/03 09:42:29;;;;;;;6.35;1.27;;;19.20;89.80;;;;;;5031543;28;20029;-86
2022/01/03 09:44:56;;;;;;;3.20;1.17;;;19.30;89.60;;;;;;5049085;28;20040;-86
2022/01/03 09:47:22;;;;;;;1.30;1.02;;;19.80;88.40;;;;;;5033543;28;20025;-85
2022/01/03 09:49:49;;;;;;;3.13;0.80;;;19.90;87.50;;;;;;5045768;28;20057;-86
2022/01/03 09:52:19;;;;;;;3.45;1.10;;;20.10;87.10;;;;;;5012771;28;20025;-86
2022/01/03 09:54:46;;;;;;;5.05;1.20;;;20.50;86.00;;;;;;5029420;28;20025;-88
2022/01/03 09:57:14;;;;;;;5.45;1.38;;;19.90;86.30;;;;;;5047260;28;20085;-86
2022/01/03 09:59:41;;;;;;;2.15;1.02;;;20.20;85.70;;;;;;5020365;28;20037;-87
2022/01/03 10:02:07;;;;;;;4.82;1.13;;;19.90;86.10;;;;;;5052765;28;20085;-86
2022/01/03 10:04:33;;;;;;;3.80;0.90;;;19.50;86.20;;;;;;5046451;28;20143;-87
2022/01/03 10:06:59;;;;;;;5.03;1.20;;;19.60;86.20;;;;;;5037522;28;20096;-84
2022/01/03 10:09:26;;;;;;;4.13;1.50;;;20.00;85.50;;;;;;5053973;28;20033;-86
2022/01/03 10:11:52;;;;;;;3.88;1.08;;;20.50;84.60;;;;;;5040457;28;20033;-84
2022/01/03 10:14:18;;;;;;;2.38;0.95;;;20.20;84.70;;;;;;5057332;28;20009;-86
2022/01/03 10:16:46;;;;;;;2.45;1.10;;;19.00;85.90;;;;;;5057635;28;20044;-82
2022/01/03 10:19:12;;;;;;;6.85;1.17;;;18.00;88.70;;;;;;5057571;28;20021;-85
2022/01/03 10:21:48;;;;;;;3.63;1.10;;;18.10;89.20;;;;;;5057387;28;20031;-84
2022/01/03 10:24:16;;;;;;;4.13;1.10;;;18.80;88.30;;;;;;5040257;28;20022;-83
2022/01/03 10:26:50;;;;;;;2.25;0.95;;;18.80;88.40;;;;;;5039877;28;20013;-84
2022/01/03 10:29:22;;;;;;;5.20;1.60;;;19.10;87.80;;;;;;5040417;28;20193;-84
2022/01/03 10:31:53;;;;;;;4.03;1.15;;;19.60;86.80;;;;;;5039973;28;20025;-84
2022/01/03 10:34:21;;;;;;;3.33;1.10;;;20.50;85.30;;;;;;5056776;28;20030;-85
2022/01/03 10:36:48;;;;;;;3.80;1.48;;;20.00;85.00;;;;;;5053232;28;20029;-86
2022/01/03 10:39:28;;;;;;;5.90;1.83;;;19.30;86.30;;;;;;5050191;28;20034;-86
2022/01/03 10:42:18;;;;;;;3.00;1.13;;;19.50;86.50;;;;;;5032123;28;20048;-88
2022/01/03 10:44:45;;;;;;;3.80;1.10;;;19.60;86.20;;;;;;5031397;28;20026;-88
2022/01/03 10:47:14;;;;;;;3.60;1.00;;;19.80;85.30;;;;;;5051873;28;20025;-86
2022/01/03 10:49:41;;;;;;;2.40;1.08;;;19.80;85.20;;;;;;5037945;28;20025;-85
2022/01/03 10:52:28;;;;;;;3.40;1.20;;;20.40;84.70;;;;;;5016309;28;20064;-86
2022/01/03 10:55:15;;;;;;;4.78;1.17;;;20.90;83.60;;;;;;5049139;28;20033;-86
2022/01/03 10:57:53;;;;;;;2.20;1.02;;;20.90;82.60;;;;;;5031929;28;20100;-85
2022/01/03 11:00:31;;;;;;;3.33;1.05;;;20.80;83.60;;;;;;5012234;28;20059;-86
2022/01/03 11:03:11;;;;;;;4.47;1.40;;;20.60;83.50;;;;;;5027459;28;20053;-86
2022/01/03 11:05:39;;;;;;;3.05;1.08;;;20.10;84.50;;;;;;5028238;28;20029;-87
2022/01/03 11:10:44;;;;;;;3.45;1.40;;;20.60;83.70;;;;;;5051501;28;20052;-87
2022/01/03 11:13:19;;;;;;;4.32;1.50;;;20.80;82.90;;;;;;5028633;28;20425;-85
2022/01/03 11:16:04;;;;;;;4.60;1.58;;;21.10;81.70;;;;;;5054321;28;20030;-87
2022/01/03 11:18:35;;;;;;;3.17;1.42;;;21.20;80.70;;;;;;5053161;28;20213;-89
2022/01/03 11:21:16;;;;;;;1.30;0.88;;;21.00;81.40;;;;;;5056076;28;20029;-87
2022/01/03 11:23:43;;;;;;;1.83;1.08;;;21.20;81.20;;;;;;5033326;28;20501;-86
2022/01/03 11:26:12;;;;;;;3.90;1.75;;;21.30;80.80;;;;;;5038915;28;20032;-84
2022/01/03 11:28:40;;;;;;;3.58;1.02;;;21.80;80.40;;;;;;5060960;28;20032;-84
2022/01/03 11:31:07;;;;;;;3.78;1.10;;;22.10;79.10;;;;;;5059043;28;20017;-88
2022/01/03 11:33:36;;;;;;;3.08;1.20;;;22.30;79.20;;;;;;5032515;28;20040;-84
2022/01/03 11:36:02;;;;;;;2.50;1.10;;;22.50;78.40;;;;;;5030969;28;20131;-88
2022/01/03 11:38:30;;;;;;;3.28;1.10;;;22.60;78.30;;;;;;5046630;28;20033;-87
2022/01/03 11:41:01;;;;;;;2.35;0.90;;;22.70;77.40;;;;;;5046356;28;20025;-88
2022/01/03 11:43:29;;;;;;;1.75;0.90;;;23.10;76.70;;;;;;5051395;28;20013;-85
2022/01/03 11:45:55;;;;;;;2.50;1.00;;;22.70;76.90;;;;;;5042812;28;20037;-84
2022/01/03 11:48:22;;;;;;;2.97;1.15;;;21.60;78.10;;;;;;5042853;28;20049;-84
2022/01/03 11:50:51;;;;;;;5.55;0.70;;;20.50;80.20;;;;;;5042518;28;20033;-84
2022/01/03 11:53:20;;;;;;;3.78;1.08;;;19.00;83.30;;;;;;5060141;28;20036;-85
2022/01/03 11:55:54;;;;;;;6.57;1.33;;;18.10;86.00;;;;;;5060369;28;20017;-85
2022/01/03 11:59:08;;;;;;;2.45;0.70;;;17.00;88.70;;;;;;5060555;28;20042;-83
2022/01/03 12:04:37;;;;;;;4.18;1.48;;;15.70;91.70;;;;;;5060482;28;20034;-84
2022/01/03 12:07:14;;;;;;;2.33;0.70;;;15.10;92.80;;;;;;5060647;28;20026;-85
2022/01/03 12:09:43;;;;;;;4.93;0.90;;;14.70;93.40;;;;;;5043311;28;20056;-85
2022/01/03 12:12:29;;;;;;;2.67;0.63;;;14.30;94.50;;;;;;5060270;28;20073;-85
2022/01/03 12:14:58;;;;;;;4.30;1.00;;;14.10;95.10;;;;;;5060316;28;20049;-86
2022/01/03 12:17:45;;;;;;;2.95;1.35;;;13.80;95.90;;;;;;5035729;28;20026;-87
2022/01/03 12:20:12;;;;;;;2.58;0.52;;;13.70;96.50;;;;;;5029716;28;20097;-87
2022/01/03 12:22:50;;;;;;;2.45;0.73;;;13.70;96.90;;;;;;5027617;28;20120;-87
2022/01/03 12:25:30;;;;;;;3.05;0.88;;;13.60;97.20;;;;;;5031042;28;20066;-88
2022/01/03 12:28:04;;;;;;;2.13;0.80;;;13.50;97.70;;;;;;5042550;28;20041;-89
2022/01/03 12:30:35;;;;;;;2.60;0.90;;;13.40;98.20;;;;;;5057242;28;20064;-89
2022/01/03 12:33:07;;;;;;;6.35;0.88;;;13.40;98.50;;;;;;5042471;28;20048;-88
2022/01/03 12:35:38;;;;;;;2.22;0.80;;;13.40;98.60;;;;;;5042734;28;20052;-89
2022/01/03 12:38:04;;;;;;;5.65;1.00;;;13.30;98.90;;;;;;5026817;28;20030;-88
2022/01/03 12:40:35;;;;;;;6.00;1.13;;;13.30;99.30;;;;;;5060025;28;20010;-89
2022/01/03 12:43:06;;;;;;;1.35;0.70;;;13.30;99.50;;;;;;5042590;28;20032;-90
2022/01/03 12:45:32;;;;;;;4.60;1.05;;;13.20;99.80;;;;;;5059961;28;20435;-88
2022/01/03 12:48:10;;;;;;;2.17;0.90;;;13.20;99.90;;;;;;5043160;28;20037;-90
2022/01/03 12:50:52;;;;;;;3.25;1.10;;;13.20;99.90;;;;;;5059928;28;20033;-90
2022/01/03 12:53:26;;;;;;;3.97;0.90;;;13.10;99.90;;;;;;5042532;28;20028;-88
2022/01/03 12:55:54;;;;;;;4.70;1.73;;;13.10;99.90;;;;;;5026428;28;20033;-90
2022/01/03 12:58:20;;;;;;;6.40;2.05;;;13.10;99.90;;;;;;5042824;28;20072;-89
2022/01/03 13:00:52;;;;;;;2.80;1.20;;;13.10;99.90;;;;;;5042643;28;20122;-90
2022/01/03 13:03:39;;;;;;;2.20;0.82;;;13.00;99.90;;;;;;5042407;28;20029;-88
2022/01/03 13:06:17;;;;;;;3.95;1.10;;;13.00;99.90;;;;;;5042921;28;20045;-89
2022/01/03 13:08:52;;;;;;;5.38;1.30;;;12.90;99.90;;;;;;5026062;28;20052;-89
2022/01/03 13:11:20;;;;;;;3.35;1.00;;;12.90;99.90;;;;;;5041291;28;20022;-86
2022/01/03 13:13:50;;;;;;;4.13;1.15;;;12.90;99.90;;;;;;5039463;28;20017;-87
2022/01/03 13:16:28;;;;;;;5.00;1.52;;;12.90;99.90;;;;;;5022652;28;20094;-87
2022/01/03 13:18:56;;;;;;;3.50;1.25;;;12.80;99.90;;;;;;5057948;28;20116;-86